sensor_id;sensor_type;location;lat;lon;timestamp;P1;durP1;ratioP1;P2;durP2;ratioP2
39612;SDS011;25303;48.896;13.342;2023-02-11T00:00:46;57.00;;;22.23;;
39612;SDS011;25303;48.896;13.342;2023-02-11T00:03:29;46.53;;;17.67;;
39612;SDS011;25303;48.896;13.342;2023-02-11T00:06:13;63.10;;;23.52;;
39612;SDS011;25303;48.896;13.342;2023-02-11T00:08:57;54.08;;;21.27;;
39612;SDS011;25303;48.896;13.342;2023-02-11T00:11:40;56.00;;;20.85;;
39612;SDS011;25303;48.896;13.342;2023-02-11T00:14:23;58.30;;;22.52;;
39612;SDS011;25303;48.896;13.342;2023-02-11T00:17:05;46.97;;;18.77;;
39612;SDS011;25303;48.896;13.342;2023-02-11T00:19:48;49.53;;;18.95;;
39612;SDS011;25303;48.896;13.342;2023-02-11T00:22:33;50.40;;;20.23;;
39612;SDS011;25303;48.896;13.342;2023-02-11T00:25:16;52.28;;;19.55;;
39612;SDS011;25303;48.896;13.342;2023-02-11T00:27:58;56.20;;;22.02;;
39612;SDS011;25303;48.896;13.342;2023-02-11T00:30:41;50.08;;;19.48;;
39612;SDS011;25303;48.896;13.342;2023-02-11T00:33:24;61.50;;;22.63;;
39612;SDS011;25303;48.896;13.342;2023-02-11T00:36:08;49.38;;;18.92;;
39612;SDS011;25303;48.896;13.342;2023-02-11T00:38:56;59.08;;;22.10;;
39612;SDS011;25303;48.896;13.342;2023-02-11T00:41:39;37.97;;;15.00;;
39612;SDS011;25303;48.896;13.342;2023-02-11T00:44:22;57.80;;;21.05;;
39612;SDS011;25303;48.896;13.342;2023-02-11T00:47:05;67.88;;;25.33;;
39612;SDS011;25303;48.896;13.342;2023-02-11T00:49:49;65.03;;;25.15;;
39612;SDS011;25303;48.896;13.342;2023-02-11T00:52:33;61.30;;;23.90;;
39612;SDS011;25303;48.896;13.342;2023-02-11T00:55:17;62.00;;;24.25;;
39612;SDS011;25303;48.896;13.342;2023-02-11T01:00:43;74.35;;;25.80;;
39612;SDS011;25303;48.896;13.342;2023-02-11T01:03:27;72.35;;;26.80;;
39612;SDS011;25303;48.896;13.342;2023-02-11T01:06:10;65.82;;;25.52;;
39612;SDS011;25303;48.896;13.342;2023-02-11T01:08:53;68.38;;;26.27;;
39612;SDS011;25303;48.896;13.342;2023-02-11T01:11:37;61.28;;;23.35;;
39612;SDS011;25303;48.896;13.342;2023-02-11T01:14:20;51.85;;;20.38;;
39612;SDS011;25303;48.896;13.342;2023-02-11T01:17:04;44.90;;;16.17;;
39612;SDS011;25303;48.896;13.342;2023-02-11T01:19:47;54.25;;;20.15;;
39612;SDS011;25303;48.896;13.342;2023-02-11T01:22:30;74.80;;;27.95;;
39612;SDS011;25303;48.896;13.342;2023-02-11T01:25:14;52.67;;;19.88;;
39612;SDS011;25303;48.896;13.342;2023-02-11T01:27:58;45.17;;;16.85;;
39612;SDS011;25303;48.896;13.342;2023-02-11T01:30:44;66.80;;;26.25;;
39612;SDS011;25303;48.896;13.342;2023-02-11T01:33:27;59.92;;;22.27;;
39612;SDS011;25303;48.896;13.342;2023-02-11T01:36:12;45.70;;;17.70;;
39612;SDS011;25303;48.896;13.342;2023-02-11T01:38:54;55.72;;;21.45;;
39612;SDS011;25303;48.896;13.342;2023-02-11T01:41:37;46.03;;;16.75;;
39612;SDS011;25303;48.896;13.342;2023-02-11T01:44:26;60.23;;;21.77;;
39612;SDS011;25303;48.896;13.342;2023-02-11T01:47:11;60.25;;;21.92;;
39612;SDS011;25303;48.896;13.342;2023-02-11T01:49:54;49.05;;;18.40;;
39612;SDS011;25303;48.896;13.342;2023-02-11T01:52:41;48.05;;;17.08;;
39612;SDS011;25303;48.896;13.342;2023-02-11T01:55:28;41.42;;;16.00;;
39612;SDS011;25303;48.896;13.342;2023-02-11T01:58:29;48.58;;;18.30;;
39612;SDS011;25303;48.896;13.342;2023-02-11T02:01:18;47.05;;;17.23;;
39612;SDS011;25303;48.896;13.342;2023-02-11T02:04:06;60.40;;;22.48;;
39612;SDS011;25303;48.896;13.342;2023-02-11T02:06:51;46.22;;;16.27;;
39612;SDS011;25303;48.896;13.342;2023-02-11T02:09:40;39.47;;;14.30;;
39612;SDS011;25303;48.896;13.342;2023-02-11T02:12:26;58.88;;;23.17;;
39612;SDS011;25303;48.896;13.342;2023-02-11T02:15:26;66.32;;;25.13;;
39612;SDS011;25303;48.896;13.342;2023-02-11T02:18:16;49.80;;;18.33;;
39612;SDS011;25303;48.896;13.342;2023-02-11T02:21:12;41.88;;;16.27;;
39612;SDS011;25303;48.896;13.342;2023-02-11T02:27:39;50.85;;;19.42;;
39612;SDS011;25303;48.896;13.342;2023-02-11T02:30:45;51.58;;;20.27;;
39612;SDS011;25303;48.896;13.342;2023-02-11T02:33:38;47.75;;;16.63;;
39612;SDS011;25303;48.896;13.342;2023-02-11T02:36:29;39.55;;;15.02;;
39612;SDS011;25303;48.896;13.342;2023-02-11T02:39:17;41.67;;;15.95;;
39612;SDS011;25303;48.896;13.342;2023-02-11T02:42:05;61.90;;;23.48;;
39612;SDS011;25303;48.896;13.342;2023-02-11T02:44:48;40.47;;;16.42;;
39612;SDS011;25303;48.896;13.342;2023-02-11T02:47:32;60.50;;;22.60;;
39612;SDS011;25303;48.896;13.342;2023-02-11T02:50:18;38.00;;;14.73;;
39612;SDS011;25303;48.896;13.342;2023-02-11T02:55:59;35.67;;;13.05;;
39612;SDS011;25303;48.896;13.342;2023-02-11T02:58:51;69.40;;;23.35;;
39612;SDS011;25303;48.896;13.342;2023-02-11T03:01:46;42.70;;;16.13;;
39612;SDS011;25303;48.896;13.342;2023-02-11T03:04:40;43.42;;;17.10;;
39612;SDS011;25303;48.896;13.342;2023-02-11T03:07:34;42.35;;;15.05;;
39612;SDS011;25303;48.896;13.342;2023-02-11T03:10:24;47.10;;;15.80;;
39612;SDS011;25303;48.896;13.342;2023-02-11T03:13:10;39.38;;;15.05;;
39612;SDS011;25303;48.896;13.342;2023-02-11T03:15:57;58.72;;;21.98;;
39612;SDS011;25303;48.896;13.342;2023-02-11T03:18:45;47.92;;;17.67;;
39612;SDS011;25303;48.896;13.342;2023-02-11T03:21:31;36.38;;;14.07;;
39612;SDS011;25303;48.896;13.342;2023-02-11T03:24:20;36.97;;;12.88;;
39612;SDS011;25303;48.896;13.342;2023-02-11T03:27:08;33.50;;;12.25;;
39612;SDS011;25303;48.896;13.342;2023-02-11T03:29:56;37.53;;;14.05;;
39612;SDS011;25303;48.896;13.342;2023-02-11T03:32:45;30.90;;;11.55;;
39612;SDS011;25303;48.896;13.342;2023-02-11T03:35:34;30.67;;;11.18;;
39612;SDS011;25303;48.896;13.342;2023-02-11T03:38:21;28.52;;;11.07;;
39612;SDS011;25303;48.896;13.342;2023-02-11T03:41:08;46.22;;;16.90;;
39612;SDS011;25303;48.896;13.342;2023-02-11T03:43:53;42.55;;;14.98;;
39612;SDS011;25303;48.896;13.342;2023-02-11T03:46:38;52.47;;;19.08;;
39612;SDS011;25303;48.896;13.342;2023-02-11T03:49:26;44.58;;;15.32;;
39612;SDS011;25303;48.896;13.342;2023-02-11T03:52:10;42.17;;;14.40;;
39612;SDS011;25303;48.896;13.342;2023-02-11T03:54:55;41.40;;;15.05;;
39612;SDS011;25303;48.896;13.342;2023-02-11T03:57:43;36.97;;;13.27;;
39612;SDS011;25303;48.896;13.342;2023-02-11T04:05:54;29.58;;;10.35;;
39612;SDS011;25303;48.896;13.342;2023-02-11T04:08:36;24.25;;;9.38;;
39612;SDS011;25303;48.896;13.342;2023-02-11T04:11:19;29.02;;;10.40;;
39612;SDS011;25303;48.896;13.342;2023-02-11T04:14:03;38.08;;;14.55;;
39612;SDS011;25303;48.896;13.342;2023-02-11T04:16:46;35.83;;;13.00;;
39612;SDS011;25303;48.896;13.342;2023-02-11T04:19:29;34.30;;;12.93;;
39612;SDS011;25303;48.896;13.342;2023-02-11T04:22:12;30.98;;;11.82;;
39612;SDS011;25303;48.896;13.342;2023-02-11T04:24:55;30.35;;;10.90;;
39612;SDS011;25303;48.896;13.342;2023-02-11T04:27:38;29.08;;;11.07;;
39612;SDS011;25303;48.896;13.342;2023-02-11T04:30:22;31.65;;;11.48;;
39612;SDS011;25303;48.896;13.342;2023-02-11T04:33:06;28.15;;;10.85;;
39612;SDS011;25303;48.896;13.342;2023-02-11T04:35:49;33.30;;;11.77;;
39612;SDS011;25303;48.896;13.342;2023-02-11T04:38:32;33.97;;;12.55;;
39612;SDS011;25303;48.896;13.342;2023-02-11T04:41:15;41.97;;;15.30;;
39612;SDS011;25303;48.896;13.342;2023-02-11T04:43:58;36.67;;;13.73;;
39612;SDS011;25303;48.896;13.342;2023-02-11T04:46:42;38.70;;;13.48;;
39612;SDS011;25303;48.896;13.342;2023-02-11T04:49:25;41.78;;;15.70;;
39612;SDS011;25303;48.896;13.342;2023-02-11T04:52:08;52.80;;;20.27;;
39612;SDS011;25303;48.896;13.342;2023-02-11T04:54:50;55.28;;;20.60;;
39612;SDS011;25303;48.896;13.342;2023-02-11T04:57:33;41.70;;;16.60;;
39612;SDS011;25303;48.896;13.342;2023-02-11T05:00:16;35.95;;;13.07;;
39612;SDS011;25303;48.896;13.342;2023-02-11T05:03:00;49.47;;;15.75;;
39612;SDS011;25303;48.896;13.342;2023-02-11T05:05:43;43.42;;;14.73;;
39612;SDS011;25303;48.896;13.342;2023-02-11T05:08:26;39.20;;;13.05;;
39612;SDS011;25303;48.896;13.342;2023-02-11T05:11:13;32.88;;;12.50;;
39612;SDS011;25303;48.896;13.342;2023-02-11T05:13:57;36.35;;;13.07;;
39612;SDS011;25303;48.896;13.342;2023-02-11T05:16:40;39.58;;;14.60;;
39612;SDS011;25303;48.896;13.342;2023-02-11T05:19:25;30.95;;;11.52;;
39612;SDS011;25303;48.896;13.342;2023-02-11T05:24:50;30.10;;;10.77;;
39612;SDS011;25303;48.896;13.342;2023-02-11T05:27:33;28.90;;;10.32;;
39612;SDS011;25303;48.896;13.342;2023-02-11T05:30:16;25.25;;;9.10;;
39612;SDS011;25303;48.896;13.342;2023-02-11T05:32:59;28.80;;;10.57;;
39612;SDS011;25303;48.896;13.342;2023-02-11T05:35:43;39.03;;;13.63;;
39612;SDS011;25303;48.896;13.342;2023-02-11T05:38:26;36.40;;;13.60;;
39612;SDS011;25303;48.896;13.342;2023-02-11T05:41:09;30.00;;;11.63;;
39612;SDS011;25303;48.896;13.342;2023-02-11T05:43:52;26.20;;;9.30;;
39612;SDS011;25303;48.896;13.342;2023-02-11T05:46:35;33.17;;;11.32;;
39612;SDS011;25303;48.896;13.342;2023-02-11T05:49:18;33.92;;;11.15;;
39612;SDS011;25303;48.896;13.342;2023-02-11T05:52:03;30.05;;;11.40;;
39612;SDS011;25303;48.896;13.342;2023-02-11T05:57:28;33.08;;;11.27;;
39612;SDS011;25303;48.896;13.342;2023-02-11T06:00:12;51.72;;;18.35;;
39612;SDS011;25303;48.896;13.342;2023-02-11T06:05:38;36.83;;;12.80;;
39612;SDS011;25303;48.896;13.342;2023-02-11T06:08:24;44.25;;;16.73;;
39612;SDS011;25303;48.896;13.342;2023-02-11T06:11:07;41.50;;;14.90;;
39612;SDS011;25303;48.896;13.342;2023-02-11T06:13:50;54.67;;;19.17;;
39612;SDS011;25303;48.896;13.342;2023-02-11T06:16:33;47.88;;;16.52;;
39612;SDS011;25303;48.896;13.342;2023-02-11T06:19:16;47.80;;;16.42;;
39612;SDS011;25303;48.896;13.342;2023-02-11T06:21:59;38.53;;;14.60;;
39612;SDS011;25303;48.896;13.342;2023-02-11T06:24:43;35.67;;;13.27;;
39612;SDS011;25303;48.896;13.342;2023-02-11T06:27:41;38.92;;;13.75;;
39612;SDS011;25303;48.896;13.342;2023-02-11T06:30:24;54.53;;;19.67;;
39612;SDS011;25303;48.896;13.342;2023-02-11T06:33:07;39.53;;;15.15;;
39612;SDS011;25303;48.896;13.342;2023-02-11T06:35:49;39.22;;;13.30;;
39612;SDS011;25303;48.896;13.342;2023-02-11T06:38:33;37.75;;;13.98;;
39612;SDS011;25303;48.896;13.342;2023-02-11T06:41:17;37.28;;;14.00;;
39612;SDS011;25303;48.896;13.342;2023-02-11T06:44:00;32.22;;;13.00;;
39612;SDS011;25303;48.896;13.342;2023-02-11T06:46:43;35.00;;;12.90;;
39612;SDS011;25303;48.896;13.342;2023-02-11T06:49:26;40.85;;;16.50;;
39612;SDS011;25303;48.896;13.342;2023-02-11T06:52:09;36.88;;;14.60;;
39612;SDS011;25303;48.896;13.342;2023-02-11T06:54:52;41.83;;;16.58;;
39612;SDS011;25303;48.896;13.342;2023-02-11T06:57:36;58.65;;;21.85;;
39612;SDS011;25303;48.896;13.342;2023-02-11T07:00:19;40.95;;;15.93;;
39612;SDS011;25303;48.896;13.342;2023-02-11T07:03:02;34.55;;;13.68;;
39612;SDS011;25303;48.896;13.342;2023-02-11T07:05:45;43.03;;;14.80;;
39612;SDS011;25303;48.896;13.342;2023-02-11T07:08:28;41.55;;;15.27;;
39612;SDS011;25303;48.896;13.342;2023-02-11T07:11:12;35.10;;;13.25;;
39612;SDS011;25303;48.896;13.342;2023-02-11T07:13:58;41.85;;;14.98;;
39612;SDS011;25303;48.896;13.342;2023-02-11T07:16:43;57.25;;;20.75;;
39612;SDS011;25303;48.896;13.342;2023-02-11T07:19:26;51.33;;;19.40;;
39612;SDS011;25303;48.896;13.342;2023-02-11T07:22:09;44.28;;;16.15;;
39612;SDS011;25303;48.896;13.342;2023-02-11T07:24:52;38.67;;;14.70;;
39612;SDS011;25303;48.896;13.342;2023-02-11T07:27:34;37.17;;;13.50;;
39612;SDS011;25303;48.896;13.342;2023-02-11T07:30:19;38.72;;;15.05;;
39612;SDS011;25303;48.896;13.342;2023-02-11T07:35:44;54.78;;;20.20;;
39612;SDS011;25303;48.896;13.342;2023-02-11T07:38:27;51.25;;;18.20;;
39612;SDS011;25303;48.896;13.342;2023-02-11T07:41:11;39.22;;;14.73;;
39612;SDS011;25303;48.896;13.342;2023-02-11T07:43:55;37.58;;;13.68;;
39612;SDS011;25303;48.896;13.342;2023-02-11T07:46:39;46.22;;;17.00;;
39612;SDS011;25303;48.896;13.342;2023-02-11T07:49:25;52.28;;;19.92;;
39612;SDS011;25303;48.896;13.342;2023-02-11T07:52:08;46.35;;;17.25;;
39612;SDS011;25303;48.896;13.342;2023-02-11T07:54:51;41.92;;;15.15;;
39612;SDS011;25303;48.896;13.342;2023-02-11T07:57:34;46.83;;;18.27;;
39612;SDS011;25303;48.896;13.342;2023-02-11T08:00:17;33.72;;;13.65;;
39612;SDS011;25303;48.896;13.342;2023-02-11T08:05:45;27.90;;;10.52;;
39612;SDS011;25303;48.896;13.342;2023-02-11T08:08:28;28.50;;;11.23;;
39612;SDS011;25303;48.896;13.342;2023-02-11T08:11:12;32.85;;;13.27;;
39612;SDS011;25303;48.896;13.342;2023-02-11T08:13:56;42.72;;;16.90;;
39612;SDS011;25303;48.896;13.342;2023-02-11T08:16:39;34.95;;;13.85;;
39612;SDS011;25303;48.896;13.342;2023-02-11T08:19:23;35.15;;;13.40;;
39612;SDS011;25303;48.896;13.342;2023-02-11T08:22:07;33.90;;;12.63;;
39612;SDS011;25303;48.896;13.342;2023-02-11T08:24:50;26.50;;;10.73;;
39612;SDS011;25303;48.896;13.342;2023-02-11T08:27:33;26.45;;;10.63;;
39612;SDS011;25303;48.896;13.342;2023-02-11T08:30:16;25.73;;;9.77;;
39612;SDS011;25303;48.896;13.342;2023-02-11T08:32:58;25.40;;;10.00;;
39612;SDS011;25303;48.896;13.342;2023-02-11T08:35:43;27.33;;;10.35;;
39612;SDS011;25303;48.896;13.342;2023-02-11T08:38:25;30.83;;;12.30;;
39612;SDS011;25303;48.896;13.342;2023-02-11T08:41:08;27.33;;;10.93;;
39612;SDS011;25303;48.896;13.342;2023-02-11T08:43:52;29.27;;;12.10;;
39612;SDS011;25303;48.896;13.342;2023-02-11T08:46:35;29.65;;;12.35;;
39612;SDS011;25303;48.896;13.342;2023-02-11T08:49:17;27.00;;;12.10;;
39612;SDS011;25303;48.896;13.342;2023-02-11T08:52:02;29.67;;;11.98;;
39612;SDS011;25303;48.896;13.342;2023-02-11T08:57:28;29.80;;;12.40;;
39612;SDS011;25303;48.896;13.342;2023-02-11T09:00:11;29.38;;;11.93;;
39612;SDS011;25303;48.896;13.342;2023-02-11T09:02:55;29.60;;;12.30;;
39612;SDS011;25303;48.896;13.342;2023-02-11T09:05:39;34.75;;;14.73;;
39612;SDS011;25303;48.896;13.342;2023-02-11T09:11:07;28.08;;;11.73;;
39612;SDS011;25303;48.896;13.342;2023-02-11T09:13:50;28.35;;;12.40;;
39612;SDS011;25303;48.896;13.342;2023-02-11T09:16:35;66.10;;;25.20;;
39612;SDS011;25303;48.896;13.342;2023-02-11T09:19:18;36.28;;;15.45;;
39612;SDS011;25303;48.896;13.342;2023-02-11T09:22:01;37.13;;;15.32;;
39612;SDS011;25303;48.896;13.342;2023-02-11T09:24:45;33.22;;;12.88;;
39612;SDS011;25303;48.896;13.342;2023-02-11T09:27:28;34.13;;;13.75;;
39612;SDS011;25303;48.896;13.342;2023-02-11T09:30:11;30.10;;;11.90;;
39612;SDS011;25303;48.896;13.342;2023-02-11T09:32:54;33.25;;;13.18;;
39612;SDS011;25303;48.896;13.342;2023-02-11T09:35:37;27.05;;;11.85;;
39612;SDS011;25303;48.896;13.342;2023-02-11T09:38:20;30.88;;;12.55;;
39612;SDS011;25303;48.896;13.342;2023-02-11T09:41:04;48.60;;;17.55;;
39612;SDS011;25303;48.896;13.342;2023-02-11T09:43:49;42.47;;;15.80;;
39612;SDS011;25303;48.896;13.342;2023-02-11T09:46:35;37.97;;;14.60;;
39612;SDS011;25303;48.896;13.342;2023-02-11T09:49:22;32.80;;;12.68;;
39612;SDS011;25303;48.896;13.342;2023-02-11T09:52:11;30.40;;;12.35;;
39612;SDS011;25303;48.896;13.342;2023-02-11T09:55:01;31.75;;;12.35;;
39612;SDS011;25303;48.896;13.342;2023-02-11T09:57:47;22.85;;;9.35;;
39612;SDS011;25303;48.896;13.342;2023-02-11T10:00:31;34.55;;;11.27;;
39612;SDS011;25303;48.896;13.342;2023-02-11T10:06:49;22.50;;;9.50;;
39612;SDS011;25303;48.896;13.342;2023-02-11T10:09:41;28.60;;;11.10;;
39612;SDS011;25303;48.896;13.342;2023-02-11T10:12:33;25.73;;;10.75;;
39612;SDS011;25303;48.896;13.342;2023-02-11T10:15:30;36.88;;;14.30;;
39612;SDS011;25303;48.896;13.342;2023-02-11T10:18:29;42.22;;;16.50;;
39612;SDS011;25303;48.896;13.342;2023-02-11T10:21:23;39.85;;;16.83;;
39612;SDS011;25303;48.896;13.342;2023-02-11T10:24:14;30.38;;;11.88;;
39612;SDS011;25303;48.896;13.342;2023-02-11T10:26:58;23.30;;;10.15;;
39612;SDS011;25303;48.896;13.342;2023-02-11T10:29:44;29.33;;;12.38;;
39612;SDS011;25303;48.896;13.342;2023-02-11T10:32:34;26.83;;;11.07;;
39612;SDS011;25303;48.896;13.342;2023-02-11T10:35:23;23.88;;;10.18;;
39612;SDS011;25303;48.896;13.342;2023-02-11T10:38:07;26.80;;;10.97;;
39612;SDS011;25303;48.896;13.342;2023-02-11T10:40:50;27.50;;;10.38;;
39612;SDS011;25303;48.896;13.342;2023-02-11T10:43:33;21.75;;;9.40;;
39612;SDS011;25303;48.896;13.342;2023-02-11T10:46:17;25.75;;;11.63;;
39612;SDS011;25303;48.896;13.342;2023-02-11T10:49:05;25.65;;;11.68;;
39612;SDS011;25303;48.896;13.342;2023-02-11T10:51:48;23.58;;;10.35;;
39612;SDS011;25303;48.896;13.342;2023-02-11T10:54:31;33.83;;;13.00;;
39612;SDS011;25303;48.896;13.342;2023-02-11T10:57:16;27.88;;;12.25;;
39612;SDS011;25303;48.896;13.342;2023-02-11T11:00:04;37.47;;;16.35;;
39612;SDS011;25303;48.896;13.342;2023-02-11T11:03:01;38.65;;;15.48;;
39612;SDS011;25303;48.896;13.342;2023-02-11T11:05:47;50.38;;;19.80;;
39612;SDS011;25303;48.896;13.342;2023-02-11T11:08:39;44.67;;;19.83;;
39612;SDS011;25303;48.896;13.342;2023-02-11T11:11:24;42.25;;;19.10;;
39612;SDS011;25303;48.896;13.342;2023-02-11T11:14:12;37.30;;;16.92;;
39612;SDS011;25303;48.896;13.342;2023-02-11T11:17:00;36.35;;;16.40;;
39612;SDS011;25303;48.896;13.342;2023-02-11T11:19:43;36.20;;;16.55;;
39612;SDS011;25303;48.896;13.342;2023-02-11T11:22:27;33.03;;;14.30;;
39612;SDS011;25303;48.896;13.342;2023-02-11T11:25:20;31.52;;;14.63;;
39612;SDS011;25303;48.896;13.342;2023-02-11T11:28:04;37.07;;;16.50;;
39612;SDS011;25303;48.896;13.342;2023-02-11T11:30:51;33.05;;;14.65;;
39612;SDS011;25303;48.896;13.342;2023-02-11T11:33:37;28.15;;;13.07;;
39612;SDS011;25303;48.896;13.342;2023-02-11T11:36:29;31.27;;;13.73;;
39612;SDS011;25303;48.896;13.342;2023-02-11T11:39:18;29.73;;;13.52;;
39612;SDS011;25303;48.896;13.342;2023-02-11T11:42:13;31.80;;;14.90;;
39612;SDS011;25303;48.896;13.342;2023-02-11T11:45:17;32.33;;;13.60;;
39612;SDS011;25303;48.896;13.342;2023-02-11T11:48:08;35.65;;;14.90;;
39612;SDS011;25303;48.896;13.342;2023-02-11T11:51:00;29.42;;;14.13;;
39612;SDS011;25303;48.896;13.342;2023-02-11T11:53:47;31.17;;;14.18;;
39612;SDS011;25303;48.896;13.342;2023-02-11T11:56:37;35.90;;;16.77;;
39612;SDS011;25303;48.896;13.342;2023-02-11T11:59:23;36.85;;;16.65;;
39612;SDS011;25303;48.896;13.342;2023-02-11T12:02:15;37.28;;;16.67;;
39612;SDS011;25303;48.896;13.342;2023-02-11T12:05:16;36.63;;;15.50;;
39612;SDS011;25303;48.896;13.342;2023-02-11T12:08:08;34.28;;;15.27;;
39612;SDS011;25303;48.896;13.342;2023-02-11T12:11:00;33.97;;;15.02;;
39612;SDS011;25303;48.896;13.342;2023-02-11T12:13:54;35.00;;;16.83;;
39612;SDS011;25303;48.896;13.342;2023-02-11T12:16:50;35.72;;;17.27;;
39612;SDS011;25303;48.896;13.342;2023-02-11T12:19:45;38.28;;;17.33;;
39612;SDS011;25303;48.896;13.342;2023-02-11T12:22:39;36.13;;;16.48;;
39612;SDS011;25303;48.896;13.342;2023-02-11T12:25:29;42.63;;;19.60;;
39612;SDS011;25303;48.896;13.342;2023-02-11T12:28:23;40.47;;;19.05;;
39612;SDS011;25303;48.896;13.342;2023-02-11T12:31:22;47.13;;;20.67;;
39612;SDS011;25303;48.896;13.342;2023-02-11T12:34:17;51.50;;;20.98;;
39612;SDS011;25303;48.896;13.342;2023-02-11T12:37:20;56.97;;;22.48;;
39612;SDS011;25303;48.896;13.342;2023-02-11T12:40:14;63.42;;;22.70;;
39612;SDS011;25303;48.896;13.342;2023-02-11T12:43:04;48.90;;;20.38;;
39612;SDS011;25303;48.896;13.342;2023-02-11T12:46:00;52.22;;;20.67;;
39612;SDS011;25303;48.896;13.342;2023-02-11T12:49:15;52.03;;;20.90;;
39612;SDS011;25303;48.896;13.342;2023-02-11T12:52:11;48.53;;;17.83;;
39612;SDS011;25303;48.896;13.342;2023-02-11T12:55:08;41.00;;;17.35;;
39612;SDS011;25303;48.896;13.342;2023-02-11T12:57:58;56.65;;;20.92;;
39612;SDS011;25303;48.896;13.342;2023-02-11T13:00:44;64.13;;;23.10;;
39612;SDS011;25303;48.896;13.342;2023-02-11T13:03:34;57.80;;;21.55;;
39612;SDS011;25303;48.896;13.342;2023-02-11T13:06:23;48.67;;;19.45;;
39612;SDS011;25303;48.896;13.342;2023-02-11T13:09:11;45.55;;;18.92;;
39612;SDS011;25303;48.896;13.342;2023-02-11T13:12:01;42.60;;;18.30;;
39612;SDS011;25303;48.896;13.342;2023-02-11T13:15:11;36.05;;;15.80;;
39612;SDS011;25303;48.896;13.342;2023-02-11T13:17:58;31.58;;;14.35;;
39612;SDS011;25303;48.896;13.342;2023-02-11T13:20:47;31.13;;;14.45;;
39612;SDS011;25303;48.896;13.342;2023-02-11T13:23:38;30.52;;;12.98;;
39612;SDS011;25303;48.896;13.342;2023-02-11T13:26:26;29.30;;;13.30;;
39612;SDS011;25303;48.896;13.342;2023-02-11T13:29:17;27.77;;;11.80;;
39612;SDS011;25303;48.896;13.342;2023-02-11T13:32:09;26.25;;;12.48;;
39612;SDS011;25303;48.896;13.342;2023-02-11T13:37:37;25.58;;;11.95;;
39612;SDS011;25303;48.896;13.342;2023-02-11T13:40:23;28.70;;;13.20;;
39612;SDS011;25303;48.896;13.342;2023-02-11T13:43:17;26.27;;;12.65;;
39612;SDS011;25303;48.896;13.342;2023-02-11T13:46:03;27.02;;;12.23;;
39612;SDS011;25303;48.896;13.342;2023-02-11T13:48:47;30.83;;;13.05;;
39612;SDS011;25303;48.896;13.342;2023-02-11T13:51:34;31.08;;;13.85;;
39612;SDS011;25303;48.896;13.342;2023-02-11T13:54:20;29.05;;;13.27;;
39612;SDS011;25303;48.896;13.342;2023-02-11T14:03:31;29.17;;;12.38;;
39612;SDS011;25303;48.896;13.342;2023-02-11T14:06:33;29.88;;;13.68;;
39612;SDS011;25303;48.896;13.342;2023-02-11T14:09:42;26.70;;;12.00;;
39612;SDS011;25303;48.896;13.342;2023-02-11T14:12:32;31.23;;;13.75;;
39612;SDS011;25303;48.896;13.342;2023-02-11T14:15:21;30.52;;;12.32;;
39612;SDS011;25303;48.896;13.342;2023-02-11T14:21:38;30.25;;;12.43;;
39612;SDS011;25303;48.896;13.342;2023-02-11T14:27:35;22.70;;;10.10;;
39612;SDS011;25303;48.896;13.342;2023-02-11T14:30:25;20.55;;;9.00;;
39612;SDS011;25303;48.896;13.342;2023-02-11T14:33:22;23.48;;;11.50;;
39612;SDS011;25303;48.896;13.342;2023-02-11T14:36:38;23.58;;;11.57;;
39612;SDS011;25303;48.896;13.342;2023-02-11T14:39:36;23.63;;;11.10;;
39612;SDS011;25303;48.896;13.342;2023-02-11T14:42:33;22.02;;;10.65;;
39612;SDS011;25303;48.896;13.342;2023-02-11T14:45:20;24.60;;;10.48;;
39612;SDS011;25303;48.896;13.342;2023-02-11T14:48:12;24.58;;;11.40;;
39612;SDS011;25303;48.896;13.342;2023-02-11T14:50:59;21.33;;;9.23;;
39612;SDS011;25303;48.896;13.342;2023-02-11T14:53:45;19.80;;;9.57;;
39612;SDS011;25303;48.896;13.342;2023-02-11T14:56:30;26.58;;;12.00;;
39612;SDS011;25303;48.896;13.342;2023-02-11T14:59:16;21.45;;;10.18;;
39612;SDS011;25303;48.896;13.342;2023-02-11T15:02:00;24.92;;;11.32;;
39612;SDS011;25303;48.896;13.342;2023-02-11T15:04:45;25.65;;;10.57;;
39612;SDS011;25303;48.896;13.342;2023-02-11T15:07:27;24.00;;;10.45;;
39612;SDS011;25303;48.896;13.342;2023-02-11T15:10:14;23.65;;;10.50;;
39612;SDS011;25303;48.896;13.342;2023-02-11T15:13:00;21.63;;;9.60;;
39612;SDS011;25303;48.896;13.342;2023-02-11T15:15:44;24.05;;;10.05;;
39612;SDS011;25303;48.896;13.342;2023-02-11T15:18:31;23.50;;;10.40;;
39612;SDS011;25303;48.896;13.342;2023-02-11T15:21:20;24.27;;;11.02;;
39612;SDS011;25303;48.896;13.342;2023-02-11T15:24:17;28.73;;;12.18;;
39612;SDS011;25303;48.896;13.342;2023-02-11T15:27:09;26.98;;;12.27;;
39612;SDS011;25303;48.896;13.342;2023-02-11T15:29:56;23.70;;;11.07;;
39612;SDS011;25303;48.896;13.342;2023-02-11T15:32:39;33.45;;;13.80;;
39612;SDS011;25303;48.896;13.342;2023-02-11T15:35:26;25.90;;;12.70;;
39612;SDS011;25303;48.896;13.342;2023-02-11T15:38:12;27.77;;;12.15;;
39612;SDS011;25303;48.896;13.342;2023-02-11T15:40:56;24.88;;;11.25;;
39612;SDS011;25303;48.896;13.342;2023-02-11T15:43:41;25.95;;;11.95;;
39612;SDS011;25303;48.896;13.342;2023-02-11T15:46:25;23.80;;;9.10;;
39612;SDS011;25303;48.896;13.342;2023-02-11T15:49:18;23.67;;;9.82;;
39612;SDS011;25303;48.896;13.342;2023-02-11T15:52:02;24.47;;;11.33;;
39612;SDS011;25303;48.896;13.342;2023-02-11T15:54:47;26.10;;;11.60;;
39612;SDS011;25303;48.896;13.342;2023-02-11T16:00:14;22.80;;;11.07;;
39612;SDS011;25303;48.896;13.342;2023-02-11T16:02:58;24.30;;;11.55;;
39612;SDS011;25303;48.896;13.342;2023-02-11T16:05:41;25.80;;;11.77;;
39612;SDS011;25303;48.896;13.342;2023-02-11T16:08:24;24.40;;;10.90;;
39612;SDS011;25303;48.896;13.342;2023-02-11T16:11:21;24.75;;;11.45;;
39612;SDS011;25303;48.896;13.342;2023-02-11T16:14:18;25.15;;;11.50;;
39612;SDS011;25303;48.896;13.342;2023-02-11T16:17:04;24.00;;;11.27;;
39612;SDS011;25303;48.896;13.342;2023-02-11T16:19:50;20.35;;;9.90;;
39612;SDS011;25303;48.896;13.342;2023-02-11T16:22:35;47.03;;;19.13;;
39612;SDS011;25303;48.896;13.342;2023-02-11T16:25:20;36.42;;;15.48;;
39612;SDS011;25303;48.896;13.342;2023-02-11T16:28:11;27.58;;;12.25;;
39612;SDS011;25303;48.896;13.342;2023-02-11T16:30:57;37.35;;;14.30;;
39612;SDS011;25303;48.896;13.342;2023-02-11T16:33:42;29.00;;;13.35;;
39612;SDS011;25303;48.896;13.342;2023-02-11T16:36:25;25.92;;;11.50;;
39612;SDS011;25303;48.896;13.342;2023-02-11T16:39:08;39.47;;;17.95;;
39612;SDS011;25303;48.896;13.342;2023-02-11T16:41:52;27.30;;;13.02;;
39612;SDS011;25303;48.896;13.342;2023-02-11T16:44:36;55.83;;;24.50;;
39612;SDS011;25303;48.896;13.342;2023-02-11T16:47:22;34.70;;;16.02;;
39612;SDS011;25303;48.896;13.342;2023-02-11T16:50:07;36.05;;;15.23;;
39612;SDS011;25303;48.896;13.342;2023-02-11T16:52:51;64.97;;;28.40;;
39612;SDS011;25303;48.896;13.342;2023-02-11T16:55:35;40.00;;;16.98;;